createdAt,value
2023-12-27T00:01:57.933Z,56.33
2023-12-27T00:04:26.266Z,55.90
2023-12-27T00:06:58.241Z,56.30
2023-12-27T00:09:26.619Z,58.40
2023-12-27T00:11:54.956Z,57.83
2023-12-27T00:14:26.637Z,56.13
2023-12-27T00:16:54.908Z,56.87
2023-12-27T00:19:24.877Z,54.63
2023-12-27T00:21:53.270Z,56.13
2023-12-27T00:24:21.627Z,56.10
2023-12-27T00:26:49.837Z,57.17
2023-12-27T00:29:18.313Z,57.23
2023-12-27T00:31:48.327Z,57.77
2023-12-27T00:34:19.193Z,56.40
2023-12-27T00:36:49.012Z,61.27
2023-12-27T00:39:25.457Z,61.03
2023-12-27T00:41:54.799Z,60.53
2023-12-27T00:44:23.416Z,60.50
2023-12-27T00:46:58.039Z,61.03
2023-12-27T00:49:26.454Z,59.43
2023-12-27T00:51:56.371Z,58.07
2023-12-27T00:54:24.782Z,59.30
2023-12-27T00:56:53.377Z,58.93
2023-12-27T00:59:23.787Z,61.83
2023-12-27T01:01:52.416Z,61.40
2023-12-27T01:04:20.774Z,59.13
2023-12-27T01:06:49.191Z,61.10
2023-12-27T01:09:22.776Z,57.77
2023-12-27T01:11:51.456Z,59.10
2023-12-27T01:14:20.430Z,60.27
2023-12-27T01:16:48.923Z,56.67
2023-12-27T01:19:19.764Z,56.10
2023-12-27T01:21:52.427Z,55.30
2023-12-27T01:24:23.599Z,56.53
2023-12-27T01:26:53.294Z,53.93
2023-12-27T01:29:21.775Z,51.77
2023-12-27T01:31:50.182Z,51.60
2023-12-27T01:34:23.605Z,54.37
2023-12-27T01:37:01.017Z,53.87
2023-12-27T01:39:35.540Z,55.13
2023-12-27T01:42:13.090Z,54.90
2023-12-27T01:44:52.531Z,54.07
2023-12-27T01:47:21.387Z,53.90
2023-12-27T01:49:52.506Z,53.77
2023-12-27T01:52:41.754Z,54.90
2023-12-27T01:55:20.141Z,54.80
2023-12-27T01:57:55.772Z,56.33
2023-12-27T02:00:31.945Z,53.53
2023-12-27T02:03:01.189Z,54.10
2023-12-27T02:05:34.259Z,53.23
2023-12-27T02:08:14.722Z,50.57
2023-12-27T02:10:58.107Z,50.30
2023-12-27T02:13:29.591Z,55.57
2023-12-27T02:15:58.605Z,52.73
2023-12-27T02:18:32.202Z,54.93
2023-12-27T02:21:05.347Z,54.87
2023-12-27T02:23:36.680Z,53.57
2023-12-27T02:26:10.765Z,56.83
2023-12-27T02:28:45.218Z,56.10
2023-12-27T02:31:21.063Z,55.63
2023-12-27T02:34:05.578Z,56.07
2023-12-27T02:36:36.501Z,53.97
2023-12-27T02:39:07.630Z,57.03
2023-12-27T02:41:44.586Z,57.50
2023-12-27T02:44:16.383Z,58.50
2023-12-27T02:46:46.647Z,57.33
2023-12-27T02:49:21.477Z,56.17
2023-12-27T02:51:55.823Z,60.33
2023-12-27T02:54:26.034Z,57.57
2023-12-27T02:57:02.727Z,61.80
2023-12-27T02:59:33.494Z,56.70
2023-12-27T03:02:05.192Z,58.50
2023-12-27T03:04:34.113Z,57.67
2023-12-27T03:07:04.066Z,56.70
2023-12-27T03:09:37.036Z,56.30
2023-12-27T03:12:14.236Z,55.00
2023-12-27T03:14:42.761Z,52.73
2023-12-27T03:17:11.194Z,52.70
2023-12-27T03:19:39.854Z,55.03
2023-12-27T03:22:11.860Z,56.70
2023-12-27T03:24:48.129Z,53.80
2023-12-27T03:27:19.370Z,55.50
2023-12-27T03:29:49.046Z,54.57
2023-12-27T03:32:18.535Z,53.87
2023-12-27T03:34:46.993Z,55.57
2023-12-27T03:37:16.314Z,55.33
2023-12-27T03:39:46.695Z,54.90
2023-12-27T03:42:24.211Z,55.87
2023-12-27T03:45:00.957Z,58.77
2023-12-27T03:47:39.643Z,58.73
2023-12-27T03:50:16.588Z,56.10
2023-12-27T03:52:46.502Z,57.07
2023-12-27T03:55:16.337Z,59.13
2023-12-27T03:57:48.998Z,57.87
2023-12-27T04:00:18.567Z,56.40
2023-12-27T04:02:47.866Z,56.53
2023-12-27T04:05:25.192Z,56.53
2023-12-27T04:07:54.155Z,56.93
2023-12-27T04:10:27.133Z,57.07
2023-12-27T04:12:58.847Z,56.63
2023-12-27T04:15:29.296Z,58.33
2023-12-27T04:18:04.429Z,56.97
2023-12-27T04:20:36.134Z,59.20
2023-12-27T04:23:08.182Z,59.00
2023-12-27T04:25:44.660Z,57.03
2023-12-27T04:28:36.035Z,59.37
2023-12-27T04:31:07.136Z,62.37
2023-12-27T04:33:46.509Z,58.53
2023-12-27T04:36:18.012Z,57.53
2023-12-27T04:39:16.079Z,57.67
2023-12-27T04:41:45.923Z,55.60
2023-12-27T04:44:24.307Z,53.90
2023-12-27T04:47:10.143Z,56.37
2023-12-27T04:49:40.597Z,57.13
2023-12-27T04:52:11.196Z,57.33
2023-12-27T04:54:39.771Z,57.00
2023-12-27T04:57:10.167Z,58.03
2023-12-27T04:59:41.824Z,58.00
2023-12-27T05:02:10.677Z,63.07
2023-12-27T05:04:47.064Z,61.03
2023-12-27T05:08:00.887Z,54.50
2023-12-27T05:17:48.561Z,55.90
2023-12-27T05:24:04.252Z,62.27
2023-12-27T05:30:08.950Z,54.80
2023-12-27T05:33:46.134Z,56.37
2023-12-27T05:37:39.077Z,58.90
2023-12-27T05:40:07.656Z,54.33
2023-12-27T05:43:07.116Z,53.63
2023-12-27T05:49:46.117Z,54.30
2023-12-27T05:59:22.132Z,54.77
2023-12-27T06:02:23.133Z,53.77
2023-12-27T06:08:28.290Z,59.93
2023-12-27T06:14:45.046Z,50.73
2023-12-27T06:18:19.494Z,52.30
2023-12-27T06:25:17.334Z,51.33
2023-12-27T06:43:31.909Z,49.17
2023-12-27T06:46:40.608Z,55.73
2023-12-27T07:38:49.592Z,43.90
2023-12-27T07:41:20.024Z,43.97
2023-12-27T07:43:48.513Z,42.80
2023-12-27T07:46:17.377Z,42.97
2023-12-27T07:48:46.450Z,41.10
2023-12-27T07:51:15.031Z,41.65
2023-12-27T07:53:43.569Z,43.10
2023-12-27T07:56:13.807Z,43.47
2023-12-27T07:58:43.611Z,41.55
2023-12-27T08:01:11.813Z,40.15
2023-12-27T08:03:40.898Z,40.63
2023-12-27T08:06:09.601Z,39.67
2023-12-27T08:08:41.066Z,38.53
2023-12-27T08:11:09.679Z,37.42
2023-12-27T08:13:39.515Z,37.47
2023-12-27T08:16:10.992Z,37.78
2023-12-27T08:18:40.057Z,36.67
2023-12-27T08:21:11.036Z,37.85
2023-12-27T08:23:44.341Z,36.55
2023-12-27T08:26:28.738Z,37.55
2023-12-27T08:29:00.625Z,36.67
2023-12-27T08:31:32.457Z,36.28
2023-12-27T08:34:04.248Z,35.83
2023-12-27T08:36:47.945Z,36.25
2023-12-27T08:39:16.195Z,37.25
2023-12-27T08:41:44.545Z,36.42
2023-12-27T08:44:13.718Z,34.83
2023-12-27T08:46:43.370Z,34.47
2023-12-27T08:49:26.345Z,37.10
2023-12-27T08:51:56.645Z,36.65
2023-12-27T09:18:38.015Z,36.15
2023-12-27T09:21:07.566Z,38.05
2023-12-27T09:23:35.751Z,38.08
2023-12-27T09:26:04.076Z,40.53
2023-12-27T09:28:32.773Z,39.10
2023-12-27T09:31:01.038Z,37.75
2023-12-27T09:33:29.485Z,39.58
2023-12-27T09:35:59.658Z,36.92
2023-12-27T09:38:27.900Z,37.60
2023-12-27T09:40:56.887Z,36.38
2023-12-27T09:43:26.400Z,35.25
2023-12-27T09:45:56.804Z,38.72
2023-12-27T09:48:27.649Z,37.50
2023-12-27T09:50:59.733Z,38.38
2023-12-27T09:53:28.433Z,36.67
2023-12-27T09:55:58.233Z,36.58
2023-12-27T09:58:28.774Z,36.15
2023-12-27T10:01:00.071Z,36.75
2023-12-27T10:03:42.021Z,35.75
2023-12-27T10:12:24.041Z,38.92
2023-12-27T10:15:00.823Z,39.40
2023-12-27T10:17:51.705Z,38.83
2023-12-27T10:21:09.735Z,35.80
2023-12-27T10:27:37.566Z,37.10
2023-12-27T10:30:40.751Z,37.17
2023-12-27T10:36:16.730Z,36.28
2023-12-27T10:42:32.308Z,35.90
2023-12-27T10:46:08.054Z,35.92
2023-12-27T10:49:18.790Z,35.63
2023-12-27T10:51:58.301Z,37.42
2023-12-27T10:58:12.960Z,38.72
2023-12-27T11:01:16.321Z,36.53
2023-12-27T11:04:07.160Z,36.47
2023-12-27T11:06:44.873Z,37.20
2023-12-27T11:09:15.504Z,36.78
2023-12-27T11:11:47.999Z,37.17
2023-12-27T11:14:27.766Z,37.90
2023-12-27T11:17:04.117Z,38.03
2023-12-27T11:19:40.618Z,37.35
2023-12-27T11:22:16.343Z,37.13
2023-12-27T11:24:48.718Z,38.33
2023-12-27T11:27:20.067Z,37.22
2023-12-27T11:29:48.994Z,36.47
2023-12-27T11:32:18.427Z,37.13
2023-12-27T11:35:27.706Z,37.67
2023-12-27T11:38:15.435Z,37.70
2023-12-27T11:40:53.658Z,37.17
2023-12-27T11:43:24.156Z,37.63
2023-12-27T11:46:01.997Z,37.55
2023-12-27T11:48:48.632Z,38.33
2023-12-27T11:51:41.785Z,38.78
2023-12-27T11:58:55.423Z,37.25
2023-12-27T12:05:34.624Z,38.33
2023-12-27T12:08:34.155Z,37.58
2023-12-27T12:11:15.604Z,38.13
2023-12-27T12:13:50.191Z,38.08
2023-12-27T12:16:40.974Z,38.63
2023-12-27T12:19:31.692Z,38.60
2023-12-27T12:22:05.610Z,39.05
2023-12-27T12:25:18.312Z,39.15
2023-12-27T12:28:36.345Z,38.05
2023-12-27T12:35:14.134Z,38.47
2023-12-27T12:52:50.843Z,39.20
2023-12-27T12:59:10.015Z,38.42
2023-12-27T13:01:47.651Z,38.92
2023-12-27T13:05:09.723Z,39.55
2023-12-27T13:11:07.048Z,40.10
2023-12-27T13:21:01.603Z,39.20
2023-12-27T13:27:15.855Z,38.25
2023-12-27T13:30:08.980Z,39.28
2023-12-27T13:37:29.438Z,39.40
2023-12-27T13:40:56.036Z,38.08
2023-12-27T13:44:06.826Z,36.30
2023-12-27T13:47:05.969Z,36.80
2023-12-27T13:50:40.971Z,38.17
2023-12-27T13:57:02.004Z,37.05
2023-12-27T13:59:33.666Z,38.47
2023-12-27T14:02:03.069Z,38.90
2023-12-27T14:04:43.783Z,38.17
2023-12-27T14:08:20.306Z,38.38
2023-12-27T14:12:13.367Z,39.17
2023-12-27T14:19:20.757Z,38.33
2023-12-27T15:16:04.928Z,37.33
2023-12-27T15:19:02.309Z,37.10
2023-12-27T15:22:18.986Z,37.95
2023-12-27T15:25:14.224Z,37.35
2023-12-27T15:35:01.932Z,36.50
2023-12-27T15:48:36.352Z,37.13
2023-12-27T15:55:19.904Z,38.22
2023-12-27T16:01:59.482Z,37.15
2023-12-27T16:21:46.364Z,37.17
2023-12-27T16:26:47.674Z,36.90
2023-12-27T16:29:20.385Z,35.55
2023-12-27T16:33:10.723Z,35.65
2023-12-27T16:36:00.093Z,35.33
2023-12-27T16:39:22.735Z,35.67
2023-12-27T16:49:58.136Z,35.55
2023-12-27T16:56:31.790Z,35.42
2023-12-27T16:59:16.469Z,34.60
2023-12-27T17:02:06.480Z,34.60
2023-12-27T17:12:10.880Z,33.65
2023-12-27T17:57:42.518Z,27.70
2023-12-27T18:00:55.701Z,27.73
2023-12-27T18:04:05.260Z,27.25
2023-12-27T18:10:43.305Z,26.98
2023-12-27T18:13:42.399Z,26.23
2023-12-27T18:16:51.487Z,25.95
2023-12-27T18:24:13.951Z,27.08
2023-12-27T19:10:51.998Z,26.27
2023-12-27T19:34:14.135Z,35.15
2023-12-27T19:36:45.337Z,35.38
2023-12-27T19:42:29.122Z,35.03
2023-12-27T19:42:47.370Z,36.35
2023-12-27T19:45:22.248Z,37.03
2023-12-27T19:47:53.765Z,38.42
2023-12-27T19:50:22.274Z,36.83
2023-12-27T19:52:53.572Z,37.85
2023-12-27T19:55:29.331Z,38.00
2023-12-27T19:58:12.789Z,37.30
2023-12-27T20:00:41.196Z,38.08
2023-12-27T20:03:20.759Z,38.75
2023-12-27T20:06:09.762Z,39.15
2023-12-27T20:09:06.531Z,37.00
2023-12-27T20:11:59.444Z,37.95
2023-12-27T20:14:38.312Z,38.47
2023-12-27T20:17:10.765Z,37.97
2023-12-27T20:19:47.779Z,39.00
2023-12-27T20:22:38.297Z,36.55
2023-12-27T20:25:34.436Z,37.13
2023-12-27T20:28:09.085Z,36.55
2023-12-27T20:30:45.866Z,37.72
2023-12-27T20:33:20.480Z,37.83
2023-12-27T20:36:10.255Z,37.33
2023-12-27T20:39:04.128Z,37.60
2023-12-27T20:41:54.684Z,36.50
2023-12-27T20:47:34.209Z,35.95
2023-12-27T20:50:13.181Z,37.10
2023-12-27T20:52:48.786Z,37.78
2023-12-27T20:55:23.406Z,39.38
2023-12-27T20:58:05.663Z,39.17
2023-12-27T21:00:36.062Z,39.83
2023-12-27T21:03:10.190Z,40.58
2023-12-27T21:05:41.163Z,40.33
2023-12-27T21:08:20.307Z,40.53
2023-12-27T21:11:16.680Z,40.15
2023-12-27T21:14:14.151Z,41.50
2023-12-27T21:17:18.728Z,40.97
2023-12-27T21:20:29.184Z,40.72
2023-12-27T21:27:34.066Z,38.97
2023-12-27T21:33:58.796Z,39.72
2023-12-27T21:37:03.169Z,38.45
2023-12-27T21:43:28.369Z,38.50
2023-12-27T21:46:22.287Z,37.90
2023-12-27T21:55:43.084Z,39.15
2023-12-27T21:58:47.859Z,40.25
2023-12-27T22:02:05.555Z,40.03
2023-12-27T22:05:56.796Z,40.08
2023-12-27T22:08:31.019Z,40.83
2023-12-27T22:11:03.150Z,40.33
2023-12-27T22:14:22.339Z,42.05
2023-12-27T22:17:39.023Z,42.35
2023-12-27T22:23:04.374Z,40.28
2023-12-27T22:25:53.184Z,40.97
2023-12-27T22:28:26.839Z,41.92
2023-12-27T22:31:26.562Z,41.90
2023-12-27T22:34:16.110Z,42.13
2023-12-27T22:40:16.976Z,41.35
2023-12-27T22:42:45.391Z,42.55
2023-12-27T22:45:28.855Z,41.35
2023-12-27T22:48:02.785Z,41.47
2023-12-27T22:50:33.478Z,41.35
2023-12-27T22:53:10.838Z,42.70
2023-12-27T22:56:03.339Z,42.83
2023-12-27T22:58:42.064Z,41.97
2023-12-27T23:01:39.294Z,42.13
2023-12-27T23:05:06.215Z,41.58
2023-12-27T23:11:02.129Z,41.50
2023-12-27T23:13:54.465Z,43.28
2023-12-27T23:17:27.322Z,42.28
2023-12-27T23:20:33.124Z,42.47
2023-12-27T23:23:05.437Z,43.05
2023-12-27T23:25:37.994Z,44.85
2023-12-27T23:28:25.470Z,45.25
2023-12-27T23:31:01.961Z,46.25
2023-12-27T23:33:37.056Z,45.78
2023-12-27T23:36:14.011Z,46.33
2023-12-27T23:38:48.330Z,45.47
2023-12-27T23:41:17.003Z,45.25
2023-12-27T23:43:47.157Z,46.83
2023-12-27T23:46:16.284Z,46.85
2023-12-27T23:48:53.471Z,46.40
2023-12-27T23:51:31.289Z,44.58
2023-12-27T23:54:05.554Z,44.60
2023-12-27T23:56:33.785Z,46.22
2023-12-27T23:59:05.272Z,45.15
